createdAt,value
2022-12-24T07:10:01.547Z,3.70
2022-12-24T07:13:03.610Z,4.78
2022-12-24T07:16:21.563Z,4.88
2022-12-24T07:23:40.637Z,4.53
2022-12-24T07:26:47.440Z,4.65
2022-12-24T07:31:39.696Z,5.53
2022-12-24T07:34:26.052Z,4.90
2022-12-24T07:37:33.154Z,4.40
2022-12-24T07:40:25.052Z,5.50
2022-12-24T07:47:30.795Z,6.22
2022-12-24T07:50:52.213Z,5.93
2022-12-24T07:54:04.501Z,6.03
2022-12-24T07:57:34.365Z,6.57
2022-12-24T08:39:39.067Z,7.03
2022-12-24T08:42:29.805Z,6.30
2022-12-24T08:45:21.600Z,7.47
2022-12-24T08:48:19.234Z,6.22
2022-12-24T08:51:22.768Z,6.85
2022-12-24T08:54:27.168Z,7.50
2022-12-24T08:57:38.474Z,6.75
2022-12-24T09:00:28.571Z,7.72
2022-12-24T09:03:23.510Z,6.13
2022-12-24T09:06:16.557Z,8.13
2022-12-24T09:09:08.425Z,8.13
2022-12-24T09:11:57.643Z,7.30
2022-12-24T09:14:46.917Z,7.88
2022-12-24T09:17:46.625Z,8.68
2022-12-24T09:20:35.378Z,7.65
2022-12-24T09:23:30.926Z,7.63
2022-12-24T09:26:27.266Z,7.88
2022-12-24T09:29:23.879Z,8.90
2022-12-24T09:32:14.859Z,8.18
2022-12-24T09:35:25.976Z,8.45
2022-12-24T09:42:09.028Z,7.72
2022-12-24T09:45:49.111Z,8.13
2022-12-24T09:48:48.346Z,8.75
2022-12-24T09:51:43.191Z,7.50
2022-12-24T09:54:37.174Z,7.13
2022-12-24T09:57:37.533Z,6.85
2022-12-24T10:00:34.059Z,6.40
2022-12-24T10:03:25.051Z,6.30
2022-12-24T10:06:29.345Z,7.78
2022-12-24T10:09:47.679Z,5.88
2022-12-24T10:16:59.312Z,8.13
2022-12-24T10:20:08.943Z,7.45
2022-12-24T10:38:51.633Z,8.27
2022-12-24T10:41:53.325Z,7.40
2022-12-24T10:46:08.882Z,9.02
2022-12-24T10:50:30.043Z,7.68
2022-12-24T11:12:13.789Z,6.70
2022-12-24T11:42:04.324Z,6.85
2022-12-24T11:44:54.178Z,7.90
2022-12-24T11:47:45.968Z,8.38
2022-12-24T12:06:00.834Z,7.13
2022-12-24T12:09:28.051Z,7.53
2022-12-24T12:12:56.540Z,7.15
2022-12-24T12:16:04.888Z,6.82
2022-12-24T12:19:45.850Z,6.55
2022-12-24T12:29:27.774Z,6.80
2022-12-24T12:32:43.170Z,5.80
2022-12-24T12:39:17.086Z,6.05
2022-12-24T12:42:35.932Z,8.32
2022-12-24T12:45:58.402Z,6.80
2022-12-24T12:49:07.846Z,6.47
2022-12-24T12:52:23.223Z,6.25
2022-12-24T12:55:44.837Z,5.90
2022-12-24T12:59:00.993Z,7.35
2022-12-24T13:02:13.876Z,6.13
2022-12-24T13:05:58.436Z,5.50
2022-12-24T13:09:39.286Z,4.78
2022-12-24T13:12:41.045Z,5.53
2022-12-24T13:15:49.944Z,4.82
2022-12-24T13:19:09.207Z,4.75
2022-12-24T13:21:58.011Z,5.53
2022-12-24T13:24:55.170Z,5.15
2022-12-24T13:27:43.444Z,4.53
2022-12-24T13:30:41.248Z,4.93
2022-12-24T13:33:40.653Z,5.25
2022-12-24T13:37:06.591Z,5.90
2022-12-24T13:40:07.083Z,6.00
2022-12-24T13:43:05.345Z,5.22
2022-12-24T13:45:56.580Z,5.32
2022-12-24T13:48:49.050Z,5.72
2022-12-24T13:51:37.449Z,6.97
2022-12-24T13:54:35.556Z,5.22
2022-12-24T13:57:49.528Z,6.07
2022-12-24T14:01:04.208Z,5.80
2022-12-24T14:07:09.245Z,6.88
2022-12-24T14:11:05.626Z,6.90
2022-12-24T14:15:08.932Z,6.65
2022-12-24T14:18:31.846Z,7.30
2022-12-24T14:23:09.489Z,6.03
2022-12-24T14:54:11.428Z,6.15
2022-12-24T14:57:23.460Z,6.63
2022-12-24T15:00:24.942Z,6.57
2022-12-24T15:03:16.670Z,7.40
2022-12-24T15:06:07.097Z,7.68
2022-12-24T15:08:55.880Z,7.65
2022-12-24T15:11:46.658Z,7.82
2022-12-24T15:14:48.847Z,7.07
2022-12-24T15:17:44.496Z,8.63
2022-12-24T15:20:33.686Z,8.75
2022-12-24T15:23:28.508Z,8.13
2022-12-24T15:26:22.115Z,8.23
2022-12-24T15:29:40.148Z,7.97
2022-12-24T15:32:28.134Z,8.48
2022-12-24T15:36:00.521Z,8.13
2022-12-24T15:38:55.479Z,7.88
2022-12-24T15:42:06.809Z,8.75
2022-12-24T15:45:28.534Z,7.15
2022-12-24T15:48:31.335Z,8.02
2022-12-24T15:51:51.718Z,9.98
2022-12-24T16:06:13.152Z,10.32
2022-12-24T16:09:06.532Z,9.68
2022-12-24T16:12:01.063Z,9.80
2022-12-24T16:15:00.007Z,9.52
2022-12-24T16:17:53.193Z,10.77
2022-12-24T16:20:49.732Z,10.43
2022-12-24T16:23:59.966Z,10.00
2022-12-24T16:26:59.400Z,9.65
2022-12-24T16:29:48.223Z,10.13
2022-12-24T16:32:59.697Z,11.55
2022-12-24T16:42:39.865Z,15.18
2022-12-24T16:45:39.441Z,16.75
2022-12-24T16:48:34.377Z,13.82
2022-12-24T16:51:25.284Z,15.00
2022-12-24T16:54:18.594Z,13.57
2022-12-24T16:57:24.796Z,11.50
2022-12-24T17:06:18.949Z,8.73
2022-12-24T17:09:19.391Z,11.35
2022-12-24T17:12:11.419Z,9.77
2022-12-24T17:15:20.156Z,10.27
2022-12-24T17:18:16.619Z,11.00
2022-12-24T17:21:08.155Z,11.95
2022-12-24T17:24:04.979Z,11.13
2022-12-24T17:30:44.462Z,11.07
2022-12-24T17:33:36.789Z,10.95
2022-12-24T17:36:36.047Z,12.65
2022-12-24T17:39:31.752Z,11.45
2022-12-24T17:42:21.135Z,13.90
2022-12-24T17:45:23.649Z,13.80
2022-12-24T17:48:28.895Z,12.88
2022-12-24T17:51:24.644Z,14.05
2022-12-24T17:54:42.647Z,14.93
2022-12-24T17:57:42.010Z,13.52
2022-12-24T18:00:35.286Z,12.63
2022-12-24T18:03:31.569Z,14.57
2022-12-24T18:07:02.198Z,14.70
2022-12-24T18:10:11.040Z,16.25
2022-12-24T18:13:05.998Z,14.60
2022-12-24T18:16:11.416Z,15.85
2022-12-24T18:19:12.629Z,15.30
2022-12-24T18:22:08.347Z,14.05
2022-12-24T18:25:03.310Z,15.68
2022-12-24T18:27:55.382Z,14.93
2022-12-24T18:30:48.613Z,14.55
2022-12-24T18:34:01.756Z,14.87
2022-12-24T18:36:58.937Z,15.10
2022-12-24T18:43:28.075Z,14.68
2022-12-24T18:46:33.812Z,14.73
2022-12-24T18:49:27.295Z,13.63
2022-12-24T18:52:27.977Z,16.48
2022-12-24T18:55:24.118Z,15.25
2022-12-24T18:58:17.491Z,16.08
2022-12-24T19:01:23.708Z,15.97
2022-12-24T19:04:17.574Z,14.75
2022-12-24T19:07:28.914Z,14.35
2022-12-24T19:10:31.671Z,15.52
2022-12-24T19:13:37.136Z,15.32
2022-12-24T19:21:56.508Z,14.00
2022-12-24T19:25:19.782Z,13.98
2022-12-24T19:28:41.512Z,14.35
2022-12-24T19:32:04.821Z,14.40
2022-12-24T19:39:42.440Z,14.60
2022-12-24T21:00:32.106Z,16.25
2022-12-24T21:04:11.853Z,16.70
